sensor_id;sensor_type;location;lat;lon;timestamp;temperature;humidity
5743;DHT22;2896;53.500;10.020;2024-02-04T00:01:17;6.40;1.00
5743;DHT22;2896;53.500;10.020;2024-02-04T00:03:44;6.30;1.00
5743;DHT22;2896;53.500;10.020;2024-02-04T00:06:12;6.20;1.00
5743;DHT22;2896;53.500;10.020;2024-02-04T00:08:38;6.20;36.10
5743;DHT22;2896;53.500;10.020;2024-02-04T00:13:34;6.10;29.70
5743;DHT22;2896;53.500;10.020;2024-02-04T00:20:54;6.10;1.00
5743;DHT22;2896;53.500;10.020;2024-02-04T00:23:22;6.10;5.10
5743;DHT22;2896;53.500;10.020;2024-02-04T00:25:49;6.10;99.90
5743;DHT22;2896;53.500;10.020;2024-02-04T00:30:44;6.10;99.90
5743;DHT22;2896;53.500;10.020;2024-02-04T00:33:10;6.10;99.90
5743;DHT22;2896;53.500;10.020;2024-02-04T00:35:37;6.00;99.90
5743;DHT22;2896;53.500;10.020;2024-02-04T00:38:04;6.10;99.90
5743;DHT22;2896;53.500;10.020;2024-02-04T00:40:32;6.10;99.90
5743;DHT22;2896;53.500;10.020;2024-02-04T00:42:58;6.00;99.90
5743;DHT22;2896;53.500;10.020;2024-02-04T00:50:19;6.00;99.90
5743;DHT22;2896;53.500;10.020;2024-02-04T00:55:12;5.90;99.90
5743;DHT22;2896;53.500;10.020;2024-02-04T00:57:39;5.90;99.90
5743;DHT22;2896;53.500;10.020;2024-02-04T01:00:07;5.90;99.90
5743;DHT22;2896;53.500;10.020;2024-02-04T01:02:34;5.80;99.90
5743;DHT22;2896;53.500;10.020;2024-02-04T01:05:01;5.80;99.90
5743;DHT22;2896;53.500;10.020;2024-02-04T01:07:28;5.80;99.90
5743;DHT22;2896;53.500;10.020;2024-02-04T01:09:54;5.90;99.90
5743;DHT22;2896;53.500;10.020;2024-02-04T01:12:21;6.00;99.90
5743;DHT22;2896;53.500;10.020;2024-02-04T01:14:49;6.00;99.90
5743;DHT22;2896;53.500;10.020;2024-02-04T01:19:43;6.00;99.90
5743;DHT22;2896;53.500;10.020;2024-02-04T01:27:03;6.10;99.90
5743;DHT22;2896;53.500;10.020;2024-02-04T01:31:58;6.20;99.90
5743;DHT22;2896;53.500;10.020;2024-02-04T01:34:25;6.20;99.90
5743;DHT22;2896;53.500;10.020;2024-02-04T01:36:52;6.20;99.90
5743;DHT22;2896;53.500;10.020;2024-02-04T01:39:18;6.30;99.90
5743;DHT22;2896;53.500;10.020;2024-02-04T01:41:45;6.30;99.90
5743;DHT22;2896;53.500;10.020;2024-02-04T01:44:11;6.40;99.90
5743;DHT22;2896;53.500;10.020;2024-02-04T01:49:07;6.50;99.90
5743;DHT22;2896;53.500;10.020;2024-02-04T01:51:34;6.50;99.90
5743;DHT22;2896;53.500;10.020;2024-02-04T01:56:28;6.50;92.40
5743;DHT22;2896;53.500;10.020;2024-02-04T01:58:56;6.60;79.00
5743;DHT22;2896;53.500;10.020;2024-02-04T02:01:23;6.60;89.50
5743;DHT22;2896;53.500;10.020;2024-02-04T02:06:19;6.80;1.00
5743;DHT22;2896;53.500;10.020;2024-02-04T02:08:46;7.30;1.00
5743;DHT22;2896;53.500;10.020;2024-02-04T02:11:18;6.80;1.00
5743;DHT22;2896;53.500;10.020;2024-02-04T02:13:51;6.80;1.00
5743;DHT22;2896;53.500;10.020;2024-02-04T02:16:23;6.80;1.00
5743;DHT22;2896;53.500;10.020;2024-02-04T02:18:54;6.80;1.00
5743;DHT22;2896;53.500;10.020;2024-02-04T02:21:44;6.80;1.00
5743;DHT22;2896;53.500;10.020;2024-02-04T02:26:49;6.80;1.00
5743;DHT22;2896;53.500;10.020;2024-02-04T02:29:16;6.70;1.00
5743;DHT22;2896;53.500;10.020;2024-02-04T02:34:10;6.80;1.00
5743;DHT22;2896;53.500;10.020;2024-02-04T02:36:43;6.90;1.00
5743;DHT22;2896;53.500;10.020;2024-02-04T02:39:17;6.70;1.00
5743;DHT22;2896;53.500;10.020;2024-02-04T02:41:47;6.80;1.00
5743;DHT22;2896;53.500;10.020;2024-02-04T02:44:17;6.70;1.00
5743;DHT22;2896;53.500;10.020;2024-02-04T02:46:45;6.70;1.00
5743;DHT22;2896;53.500;10.020;2024-02-04T02:49:13;6.60;1.00
5743;DHT22;2896;53.500;10.020;2024-02-04T02:51:40;6.50;1.00
5743;DHT22;2896;53.500;10.020;2024-02-04T02:54:06;6.50;1.00
5743;DHT22;2896;53.500;10.020;2024-02-04T02:56:33;6.50;1.00
5743;DHT22;2896;53.500;10.020;2024-02-04T03:01:28;6.40;1.00
5743;DHT22;2896;53.500;10.020;2024-02-04T03:06:22;6.40;1.00
5743;DHT22;2896;53.500;10.020;2024-02-04T03:11:15;6.40;1.00
5743;DHT22;2896;53.500;10.020;2024-02-04T03:16:10;6.40;1.00
5743;DHT22;2896;53.500;10.020;2024-02-04T03:18:39;6.40;1.00
5743;DHT22;2896;53.500;10.020;2024-02-04T03:21:11;6.40;1.00
5743;DHT22;2896;53.500;10.020;2024-02-04T03:23:38;6.20;1.00
5743;DHT22;2896;53.500;10.020;2024-02-04T03:28:32;6.30;1.00
5743;DHT22;2896;53.500;10.020;2024-02-04T03:30:58;6.30;1.00
5743;DHT22;2896;53.500;10.020;2024-02-04T03:35:53;6.30;1.00
5743;DHT22;2896;53.500;10.020;2024-02-04T03:38:20;6.20;1.00
5743;DHT22;2896;53.500;10.020;2024-02-04T03:40:47;6.20;1.00
5743;DHT22;2896;53.500;10.020;2024-02-04T03:43:14;6.30;1.00
5743;DHT22;2896;53.500;10.020;2024-02-04T03:45:42;6.20;1.00
5743;DHT22;2896;53.500;10.020;2024-02-04T03:48:09;6.20;1.00
5743;DHT22;2896;53.500;10.020;2024-02-04T03:50:36;6.20;1.00
5743;DHT22;2896;53.500;10.020;2024-02-04T03:53:04;6.20;1.00
5743;DHT22;2896;53.500;10.020;2024-02-04T03:55:30;6.10;1.00
5743;DHT22;2896;53.500;10.020;2024-02-04T03:57:58;6.00;1.00
5743;DHT22;2896;53.500;10.020;2024-02-04T04:00:24;6.00;26.60
5743;DHT22;2896;53.500;10.020;2024-02-04T04:02:51;5.90;66.40
5743;DHT22;2896;53.500;10.020;2024-02-04T04:05:18;5.90;71.30
5743;DHT22;2896;53.500;10.020;2024-02-04T04:07:44;5.90;99.90
5743;DHT22;2896;53.500;10.020;2024-02-04T04:10:12;5.90;99.90
5743;DHT22;2896;53.500;10.020;2024-02-04T04:12:39;5.90;99.90
5743;DHT22;2896;53.500;10.020;2024-02-04T04:15:06;6.00;99.90
5743;DHT22;2896;53.500;10.020;2024-02-04T04:24:55;5.90;99.90
5743;DHT22;2896;53.500;10.020;2024-02-04T04:27:23;5.90;99.90
5743;DHT22;2896;53.500;10.020;2024-02-04T04:29:49;6.00;99.90
5743;DHT22;2896;53.500;10.020;2024-02-04T04:34:43;6.00;99.90
5743;DHT22;2896;53.500;10.020;2024-02-04T04:37:09;6.00;99.90
5743;DHT22;2896;53.500;10.020;2024-02-04T04:42:03;6.00;99.90
5743;DHT22;2896;53.500;10.020;2024-02-04T04:44:31;6.00;99.90
5743;DHT22;2896;53.500;10.020;2024-02-04T04:49:25;5.90;99.90
5743;DHT22;2896;53.500;10.020;2024-02-04T04:56:45;5.90;99.90
5743;DHT22;2896;53.500;10.020;2024-02-04T05:01:46;5.90;99.90
5743;DHT22;2896;53.500;10.020;2024-02-04T05:06:40;5.90;99.90
5743;DHT22;2896;53.500;10.020;2024-02-04T05:11:34;5.80;99.90
5743;DHT22;2896;53.500;10.020;2024-02-04T05:16:27;5.80;99.90
5743;DHT22;2896;53.500;10.020;2024-02-04T05:18:55;5.90;99.90
5743;DHT22;2896;53.500;10.020;2024-02-04T05:26:17;5.80;99.90
5743;DHT22;2896;53.500;10.020;2024-02-04T05:33:38;5.80;99.90
5743;DHT22;2896;53.500;10.020;2024-02-04T05:36:06;5.90;99.90
5743;DHT22;2896;53.500;10.020;2024-02-04T05:41:00;5.80;99.90
5743;DHT22;2896;53.500;10.020;2024-02-04T05:43:27;5.70;99.90
5743;DHT22;2896;53.500;10.020;2024-02-04T05:48:20;5.70;99.90
5743;DHT22;2896;53.500;10.020;2024-02-04T05:53:15;5.70;99.90
5743;DHT22;2896;53.500;10.020;2024-02-04T05:58:09;5.80;99.90
5743;DHT22;2896;53.500;10.020;2024-02-04T06:03:03;5.80;99.90
5743;DHT22;2896;53.500;10.020;2024-02-04T06:07:57;5.80;99.90
5743;DHT22;2896;53.500;10.020;2024-02-04T06:10:25;5.80;99.90
5743;DHT22;2896;53.500;10.020;2024-02-04T06:12:51;5.80;99.90
5743;DHT22;2896;53.500;10.020;2024-02-04T06:20:13;5.90;99.90
5743;DHT22;2896;53.500;10.020;2024-02-04T06:25:07;5.90;99.90
5743;DHT22;2896;53.500;10.020;2024-02-04T06:27:35;5.80;99.90
5743;DHT22;2896;53.500;10.020;2024-02-04T06:34:56;5.70;99.90
5743;DHT22;2896;53.500;10.020;2024-02-04T06:42:17;5.80;99.90
5743;DHT22;2896;53.500;10.020;2024-02-04T06:44:45;5.90;99.90
5743;DHT22;2896;53.500;10.020;2024-02-04T06:49:39;5.70;99.90
5743;DHT22;2896;53.500;10.020;2024-02-04T06:52:06;5.70;99.90
5743;DHT22;2896;53.500;10.020;2024-02-04T06:56:59;5.80;99.90
5743;DHT22;2896;53.500;10.020;2024-02-04T07:01:54;5.80;99.90
5743;DHT22;2896;53.500;10.020;2024-02-04T07:06:49;5.90;99.90
5743;DHT22;2896;53.500;10.020;2024-02-04T07:09:16;5.80;99.90
5743;DHT22;2896;53.500;10.020;2024-02-04T07:11:42;5.90;99.90
5743;DHT22;2896;53.500;10.020;2024-02-04T07:19:04;5.90;99.90
5743;DHT22;2896;53.500;10.020;2024-02-04T07:26:25;6.00;99.90
5743;DHT22;2896;53.500;10.020;2024-02-04T07:36:14;6.00;99.90
5743;DHT22;2896;53.500;10.020;2024-02-04T07:38:41;6.00;99.90
5743;DHT22;2896;53.500;10.020;2024-02-04T07:43:34;6.10;99.90
5743;DHT22;2896;53.500;10.020;2024-02-04T07:46:02;6.10;99.90
5743;DHT22;2896;53.500;10.020;2024-02-04T07:53:24;6.20;99.90
5743;DHT22;2896;53.500;10.020;2024-02-04T07:55:51;6.30;99.90
5743;DHT22;2896;53.500;10.020;2024-02-04T07:58:17;6.30;99.90
5743;DHT22;2896;53.500;10.020;2024-02-04T08:05:39;6.50;99.90
5743;DHT22;2896;53.500;10.020;2024-02-04T08:08:06;6.40;99.90
5743;DHT22;2896;53.500;10.020;2024-02-04T08:10:33;6.40;99.90
5743;DHT22;2896;53.500;10.020;2024-02-04T08:20:22;6.60;99.90
5743;DHT22;2896;53.500;10.020;2024-02-04T08:32:38;6.70;1.00
5743;DHT22;2896;53.500;10.020;2024-02-04T08:35:06;6.70;7.10
5743;DHT22;2896;53.500;10.020;2024-02-04T08:44:57;6.90;1.00
5743;DHT22;2896;53.500;10.020;2024-02-04T08:49:50;6.90;1.00
5743;DHT22;2896;53.500;10.020;2024-02-04T08:54:44;6.90;1.00
5743;DHT22;2896;53.500;10.020;2024-02-04T09:02:06;6.90;1.00
5743;DHT22;2896;53.500;10.020;2024-02-04T09:04:33;7.00;1.00
5743;DHT22;2896;53.500;10.020;2024-02-04T09:09:32;7.10;1.00
5743;DHT22;2896;53.500;10.020;2024-02-04T09:19:24;7.20;1.00
5743;DHT22;2896;53.500;10.020;2024-02-04T09:21:50;7.20;1.00
5743;DHT22;2896;53.500;10.020;2024-02-04T09:24:17;7.10;99.90
5743;DHT22;2896;53.500;10.020;2024-02-04T09:36:33;7.20;99.90
5743;DHT22;2896;53.500;10.020;2024-02-04T09:38:59;7.30;99.90
5743;DHT22;2896;53.500;10.020;2024-02-04T09:46:22;7.50;99.90
5743;DHT22;2896;53.500;10.020;2024-02-04T09:48:49;7.50;99.90
5743;DHT22;2896;53.500;10.020;2024-02-04T09:53:46;7.70;99.90
5743;DHT22;2896;53.500;10.020;2024-02-04T09:56:17;7.70;1.00
5743;DHT22;2896;53.500;10.020;2024-02-04T10:01:11;7.70;99.90
5743;DHT22;2896;53.500;10.020;2024-02-04T10:08:34;7.70;99.90
5743;DHT22;2896;53.500;10.020;2024-02-04T10:11:03;7.80;1.00
5743;DHT22;2896;53.500;10.020;2024-02-04T10:13:29;7.70;1.00
5743;DHT22;2896;53.500;10.020;2024-02-04T10:28:14;7.90;1.00
5743;DHT22;2896;53.500;10.020;2024-02-04T10:33:08;7.80;99.90
5743;DHT22;2896;53.500;10.020;2024-02-04T10:38:02;7.80;99.90
5743;DHT22;2896;53.500;10.020;2024-02-04T10:43:00;7.90;99.90
5743;DHT22;2896;53.500;10.020;2024-02-04T10:45:32;7.50;57.90
5743;DHT22;2896;53.500;10.020;2024-02-04T10:48:01;7.90;99.90
5743;DHT22;2896;53.500;10.020;2024-02-04T10:50:30;8.00;99.90
5743;DHT22;2896;53.500;10.020;2024-02-04T10:53:04;8.00;1.00
5743;DHT22;2896;53.500;10.020;2024-02-04T10:55:33;8.00;99.90
5743;DHT22;2896;53.500;10.020;2024-02-04T11:00:32;8.20;99.90
5743;DHT22;2896;53.500;10.020;2024-02-04T11:02:59;8.20;99.90
5743;DHT22;2896;53.500;10.020;2024-02-04T11:05:27;8.10;99.90
5743;DHT22;2896;53.500;10.020;2024-02-04T11:07:55;8.10;99.90
5743;DHT22;2896;53.500;10.020;2024-02-04T11:10:22;8.20;2.10
5743;DHT22;2896;53.500;10.020;2024-02-04T11:15:19;8.10;1.00
5743;DHT22;2896;53.500;10.020;2024-02-04T11:18:15;8.20;99.90
5743;DHT22;2896;53.500;10.020;2024-02-04T11:21:06;8.30;4.50
5743;DHT22;2896;53.500;10.020;2024-02-04T11:23:43;8.20;1.00
5743;DHT22;2896;53.500;10.020;2024-02-04T11:28:42;8.30;1.00
5743;DHT22;2896;53.500;10.020;2024-02-04T11:31:14;8.30;99.90
5743;DHT22;2896;53.500;10.020;2024-02-04T11:33:43;8.40;1.00
5743;DHT22;2896;53.500;10.020;2024-02-04T11:36:13;8.40;99.90
5743;DHT22;2896;53.500;10.020;2024-02-04T11:38:40;8.50;1.00
5743;DHT22;2896;53.500;10.020;2024-02-04T11:41:07;8.40;1.00
5743;DHT22;2896;53.500;10.020;2024-02-04T11:43:35;8.40;39.40
5743;DHT22;2896;53.500;10.020;2024-02-04T11:50:59;8.50;1.00
5743;DHT22;2896;53.500;10.020;2024-02-04T11:53:26;8.60;1.00
5743;DHT22;2896;53.500;10.020;2024-02-04T11:55:55;8.70;99.90
5743;DHT22;2896;53.500;10.020;2024-02-04T11:58:22;8.60;99.90
5743;DHT22;2896;53.500;10.020;2024-02-04T12:00:51;8.60;99.90
5743;DHT22;2896;53.500;10.020;2024-02-04T12:03:28;8.70;99.90
5743;DHT22;2896;53.500;10.020;2024-02-04T12:05:55;8.70;15.40
5743;DHT22;2896;53.500;10.020;2024-02-04T12:08:24;8.60;99.90
5743;DHT22;2896;53.500;10.020;2024-02-04T12:10:52;8.70;99.90
5743;DHT22;2896;53.500;10.020;2024-02-04T12:15:47;8.70;99.90
5743;DHT22;2896;53.500;10.020;2024-02-04T12:18:14;8.80;99.90
5743;DHT22;2896;53.500;10.020;2024-02-04T12:20:46;8.70;99.90
5743;DHT22;2896;53.500;10.020;2024-02-04T12:23:13;8.80;28.70
5743;DHT22;2896;53.500;10.020;2024-02-04T12:25:41;8.50;1.00
5743;DHT22;2896;53.500;10.020;2024-02-04T12:28:08;8.70;1.00
5743;DHT22;2896;53.500;10.020;2024-02-04T12:30:35;8.80;1.00
5743;DHT22;2896;53.500;10.020;2024-02-04T12:33:03;8.90;1.00
5743;DHT22;2896;53.500;10.020;2024-02-04T12:35:31;8.90;99.90
5743;DHT22;2896;53.500;10.020;2024-02-04T12:37:59;9.00;1.00
5743;DHT22;2896;53.500;10.020;2024-02-04T12:40:28;9.00;99.90
5743;DHT22;2896;53.500;10.020;2024-02-04T12:42:57;8.90;99.90
5743;DHT22;2896;53.500;10.020;2024-02-04T12:45:25;8.90;99.90
5743;DHT22;2896;53.500;10.020;2024-02-04T12:47:56;8.90;99.90
5743;DHT22;2896;53.500;10.020;2024-02-04T12:53:03;8.90;99.90
5743;DHT22;2896;53.500;10.020;2024-02-04T12:58:03;8.90;1.00
5743;DHT22;2896;53.500;10.020;2024-02-04T13:02:58;8.90;99.90
5743;DHT22;2896;53.500;10.020;2024-02-04T13:05:25;8.80;1.00
5743;DHT22;2896;53.500;10.020;2024-02-04T13:07:53;8.80;1.00
5743;DHT22;2896;53.500;10.020;2024-02-04T13:10:21;8.80;1.00
5743;DHT22;2896;53.500;10.020;2024-02-04T13:12:58;8.80;1.00
5743;DHT22;2896;53.500;10.020;2024-02-04T13:15:27;8.80;1.00
5743;DHT22;2896;53.500;10.020;2024-02-04T13:17:53;8.80;1.00
5743;DHT22;2896;53.500;10.020;2024-02-04T13:20:20;8.80;1.00
5743;DHT22;2896;53.500;10.020;2024-02-04T13:22:46;8.80;1.00
5743;DHT22;2896;53.500;10.020;2024-02-04T13:25:13;8.80;1.00
5743;DHT22;2896;53.500;10.020;2024-02-04T13:27:40;8.90;1.00
5743;DHT22;2896;53.500;10.020;2024-02-04T13:30:08;8.90;1.00
5743;DHT22;2896;53.500;10.020;2024-02-04T13:32:39;8.90;1.00
5743;DHT22;2896;53.500;10.020;2024-02-04T13:35:06;8.80;1.00
5743;DHT22;2896;53.500;10.020;2024-02-04T13:37:34;8.80;1.00
5743;DHT22;2896;53.500;10.020;2024-02-04T13:40:01;8.80;1.00
5743;DHT22;2896;53.500;10.020;2024-02-04T13:42:28;8.80;1.00
5743;DHT22;2896;53.500;10.020;2024-02-04T13:44:55;8.90;1.00
5743;DHT22;2896;53.500;10.020;2024-02-04T13:47:22;8.80;1.00
5743;DHT22;2896;53.500;10.020;2024-02-04T13:49:50;8.70;1.00
5743;DHT22;2896;53.500;10.020;2024-02-04T13:52:16;8.80;1.00
5743;DHT22;2896;53.500;10.020;2024-02-04T13:54:43;8.70;1.00
5743;DHT22;2896;53.500;10.020;2024-02-04T14:02:04;8.80;1.00
5743;DHT22;2896;53.500;10.020;2024-02-04T14:04:33;8.70;1.00
5743;DHT22;2896;53.500;10.020;2024-02-04T14:07:01;8.70;1.00
5743;DHT22;2896;53.500;10.020;2024-02-04T14:09:28;8.70;25.00
5743;DHT22;2896;53.500;10.020;2024-02-04T14:11:55;8.80;1.00
5743;DHT22;2896;53.500;10.020;2024-02-04T14:14:22;8.70;1.00
5743;DHT22;2896;53.500;10.020;2024-02-04T14:16:49;8.70;48.10
5743;DHT22;2896;53.500;10.020;2024-02-04T14:21:44;8.90;1.00
5743;DHT22;2896;53.500;10.020;2024-02-04T14:24:12;8.80;1.00
5743;DHT22;2896;53.500;10.020;2024-02-04T14:26:39;8.80;1.00
5743;DHT22;2896;53.500;10.020;2024-02-04T14:29:07;8.70;1.00
5743;DHT22;2896;53.500;10.020;2024-02-04T14:38:55;8.70;99.90
5743;DHT22;2896;53.500;10.020;2024-02-04T14:41:24;8.70;99.90
5743;DHT22;2896;53.500;10.020;2024-02-04T14:46:18;8.40;99.90
5743;DHT22;2896;53.500;10.020;2024-02-04T14:48:44;8.60;1.00
5743;DHT22;2896;53.500;10.020;2024-02-04T14:51:11;8.60;1.00
5743;DHT22;2896;53.500;10.020;2024-02-04T14:53:37;8.60;1.00
5743;DHT22;2896;53.500;10.020;2024-02-04T14:56:04;8.60;1.00
5743;DHT22;2896;53.500;10.020;2024-02-04T14:58:32;8.60;1.00
5743;DHT22;2896;53.500;10.020;2024-02-04T15:03:26;8.50;99.90
5743;DHT22;2896;53.500;10.020;2024-02-04T15:05:52;8.50;99.90
5743;DHT22;2896;53.500;10.020;2024-02-04T15:08:19;8.40;99.90
5743;DHT22;2896;53.500;10.020;2024-02-04T15:10:46;8.40;1.00
5743;DHT22;2896;53.500;10.020;2024-02-04T15:13:13;8.50;1.00
5743;DHT22;2896;53.500;10.020;2024-02-04T15:15:42;8.40;1.00
5743;DHT22;2896;53.500;10.020;2024-02-04T15:18:10;8.30;1.00
5743;DHT22;2896;53.500;10.020;2024-02-04T15:20:38;8.30;1.00
5743;DHT22;2896;53.500;10.020;2024-02-04T15:23:05;8.20;99.90
5743;DHT22;2896;53.500;10.020;2024-02-04T15:25:33;8.10;1.00
5743;DHT22;2896;53.500;10.020;2024-02-04T15:28:00;8.10;99.90
5743;DHT22;2896;53.500;10.020;2024-02-04T15:30:28;8.20;1.00
5743;DHT22;2896;53.500;10.020;2024-02-04T15:32:56;8.10;44.50
5743;DHT22;2896;53.500;10.020;2024-02-04T15:35:24;8.10;99.90
5743;DHT22;2896;53.500;10.020;2024-02-04T15:37:51;8.10;1.00
5743;DHT22;2896;53.500;10.020;2024-02-04T15:40:17;8.00;1.00
5743;DHT22;2896;53.500;10.020;2024-02-04T15:42:45;8.00;1.00
5743;DHT22;2896;53.500;10.020;2024-02-04T15:45:12;8.00;14.20
5743;DHT22;2896;53.500;10.020;2024-02-04T15:47:43;8.00;99.90
5743;DHT22;2896;53.500;10.020;2024-02-04T15:50:16;7.80;99.90
5743;DHT22;2896;53.500;10.020;2024-02-04T15:55:11;7.70;99.90
5743;DHT22;2896;53.500;10.020;2024-02-04T15:57:40;7.80;99.90
5743;DHT22;2896;53.500;10.020;2024-02-04T16:00:12;7.80;99.90
5743;DHT22;2896;53.500;10.020;2024-02-04T16:02:43;8.10;99.90
5743;DHT22;2896;53.500;10.020;2024-02-04T16:05:11;7.70;99.90
5743;DHT22;2896;53.500;10.020;2024-02-04T16:07:39;7.70;99.90
5743;DHT22;2896;53.500;10.020;2024-02-04T16:10:07;7.70;99.90
5743;DHT22;2896;53.500;10.020;2024-02-04T16:12:35;7.60;99.90
5743;DHT22;2896;53.500;10.020;2024-02-04T16:15:03;7.60;99.90
5743;DHT22;2896;53.500;10.020;2024-02-04T16:17:32;7.40;99.90
5743;DHT22;2896;53.500;10.020;2024-02-04T16:19:59;7.50;99.90
5743;DHT22;2896;53.500;10.020;2024-02-04T16:24:54;7.50;99.90
5743;DHT22;2896;53.500;10.020;2024-02-04T16:27:20;7.50;99.90
5743;DHT22;2896;53.500;10.020;2024-02-04T16:29:47;7.50;99.90
5743;DHT22;2896;53.500;10.020;2024-02-04T16:32:14;7.50;99.90
5743;DHT22;2896;53.500;10.020;2024-02-04T16:34:41;7.40;99.90
5743;DHT22;2896;53.500;10.020;2024-02-04T16:37:07;7.30;99.90
5743;DHT22;2896;53.500;10.020;2024-02-04T16:39:35;7.50;99.90
5743;DHT22;2896;53.500;10.020;2024-02-04T16:42:04;7.50;99.90
5743;DHT22;2896;53.500;10.020;2024-02-04T16:47:00;7.40;99.90
5743;DHT22;2896;53.500;10.020;2024-02-04T16:51:54;7.40;99.90
5743;DHT22;2896;53.500;10.020;2024-02-04T16:56:49;7.30;99.90
5743;DHT22;2896;53.500;10.020;2024-02-04T16:59:17;7.40;99.90
5743;DHT22;2896;53.500;10.020;2024-02-04T17:01:44;7.40;99.90
5743;DHT22;2896;53.500;10.020;2024-02-04T17:04:12;7.30;99.90
5743;DHT22;2896;53.500;10.020;2024-02-04T17:09:10;7.40;99.90
5743;DHT22;2896;53.500;10.020;2024-02-04T17:11:40;7.40;99.90
5743;DHT22;2896;53.500;10.020;2024-02-04T17:14:07;7.40;99.90
5743;DHT22;2896;53.500;10.020;2024-02-04T17:16:44;7.40;99.90
5743;DHT22;2896;53.500;10.020;2024-02-04T17:19:18;7.40;99.90
5743;DHT22;2896;53.500;10.020;2024-02-04T17:21:53;7.40;99.90
5743;DHT22;2896;53.500;10.020;2024-02-04T17:24:26;7.40;99.90
5743;DHT22;2896;53.500;10.020;2024-02-04T17:26:54;7.40;99.90
5743;DHT22;2896;53.500;10.020;2024-02-04T17:29:21;7.30;99.90
5743;DHT22;2896;53.500;10.020;2024-02-04T17:31:50;7.30;99.90
5743;DHT22;2896;53.500;10.020;2024-02-04T17:34:17;7.30;99.90
5743;DHT22;2896;53.500;10.020;2024-02-04T17:36:44;7.40;99.90
5743;DHT22;2896;53.500;10.020;2024-02-04T17:44:05;7.40;99.90
5743;DHT22;2896;53.500;10.020;2024-02-04T17:46:31;7.40;99.90
5743;DHT22;2896;53.500;10.020;2024-02-04T17:48:59;7.40;99.90
5743;DHT22;2896;53.500;10.020;2024-02-04T17:51:27;7.40;99.90
5743;DHT22;2896;53.500;10.020;2024-02-04T18:01:19;7.40;99.90
5743;DHT22;2896;53.500;10.020;2024-02-04T18:03:45;7.40;99.90
5743;DHT22;2896;53.500;10.020;2024-02-04T18:06:13;7.40;99.90
5743;DHT22;2896;53.500;10.020;2024-02-04T18:11:14;7.40;99.90
5743;DHT22;2896;53.500;10.020;2024-02-04T18:13:41;7.50;99.90
5743;DHT22;2896;53.500;10.020;2024-02-04T18:16:08;7.40;99.90
5743;DHT22;2896;53.500;10.020;2024-02-04T18:18:35;7.40;99.90
5743;DHT22;2896;53.500;10.020;2024-02-04T18:23:30;7.40;99.90
5743;DHT22;2896;53.500;10.020;2024-02-04T18:28:24;7.40;99.90
5743;DHT22;2896;53.500;10.020;2024-02-04T18:30:50;7.40;99.90
5743;DHT22;2896;53.500;10.020;2024-02-04T18:33:17;7.40;99.90
5743;DHT22;2896;53.500;10.020;2024-02-04T18:35:44;7.40;99.90
5743;DHT22;2896;53.500;10.020;2024-02-04T18:40:39;7.40;99.90
5743;DHT22;2896;53.500;10.020;2024-02-04T18:43:06;7.40;99.90
5743;DHT22;2896;53.500;10.020;2024-02-04T18:48:00;7.50;99.90
5743;DHT22;2896;53.500;10.020;2024-02-04T18:50:27;7.50;99.90
5743;DHT22;2896;53.500;10.020;2024-02-04T18:52:54;7.50;99.90
5743;DHT22;2896;53.500;10.020;2024-02-04T18:55:20;7.50;99.90
5743;DHT22;2896;53.500;10.020;2024-02-04T18:57:48;7.60;99.90
5743;DHT22;2896;53.500;10.020;2024-02-04T19:02:43;7.50;99.90
5743;DHT22;2896;53.500;10.020;2024-02-04T19:07:36;7.50;99.90
5743;DHT22;2896;53.500;10.020;2024-02-04T19:10:04;7.50;99.90
5743;DHT22;2896;53.500;10.020;2024-02-04T19:12:31;7.50;99.90
5743;DHT22;2896;53.500;10.020;2024-02-04T19:14:59;7.50;99.90
5743;DHT22;2896;53.500;10.020;2024-02-04T19:17:28;7.50;99.90
5743;DHT22;2896;53.500;10.020;2024-02-04T19:24:54;7.40;99.90
5743;DHT22;2896;53.500;10.020;2024-02-04T19:27:21;7.40;99.90
5743;DHT22;2896;53.500;10.020;2024-02-04T19:32:16;7.40;99.90
5743;DHT22;2896;53.500;10.020;2024-02-04T19:34:43;7.40;99.90
5743;DHT22;2896;53.500;10.020;2024-02-04T19:37:10;7.40;99.90
5743;DHT22;2896;53.500;10.020;2024-02-04T19:39:36;7.40;99.90
5743;DHT22;2896;53.500;10.020;2024-02-04T19:42:03;7.40;99.90
5743;DHT22;2896;53.500;10.020;2024-02-04T19:44:30;7.40;99.90
5743;DHT22;2896;53.500;10.020;2024-02-04T19:46:57;7.40;99.90
5743;DHT22;2896;53.500;10.020;2024-02-04T19:49:25;7.40;99.90
5743;DHT22;2896;53.500;10.020;2024-02-04T19:51:52;7.40;99.90
5743;DHT22;2896;53.500;10.020;2024-02-04T19:54:19;7.40;99.90
5743;DHT22;2896;53.500;10.020;2024-02-04T19:56:46;7.40;99.90
5743;DHT22;2896;53.500;10.020;2024-02-04T19:59:13;7.50;99.90
5743;DHT22;2896;53.500;10.020;2024-02-04T20:01:39;7.50;99.90
5743;DHT22;2896;53.500;10.020;2024-02-04T20:04:06;7.30;99.90
5743;DHT22;2896;53.500;10.020;2024-02-04T20:06:36;7.40;99.90
5743;DHT22;2896;53.500;10.020;2024-02-04T20:09:02;7.40;99.90
5743;DHT22;2896;53.500;10.020;2024-02-04T20:11:30;7.30;99.90
5743;DHT22;2896;53.500;10.020;2024-02-04T20:16:24;7.40;99.90
5743;DHT22;2896;53.500;10.020;2024-02-04T20:18:51;7.40;99.90
5743;DHT22;2896;53.500;10.020;2024-02-04T20:21:20;7.40;99.90
5743;DHT22;2896;53.500;10.020;2024-02-04T20:23:48;7.40;99.90
5743;DHT22;2896;53.500;10.020;2024-02-04T20:28:42;7.40;99.90
5743;DHT22;2896;53.500;10.020;2024-02-04T20:33:36;7.40;99.90
5743;DHT22;2896;53.500;10.020;2024-02-04T20:36:08;7.40;99.90
5743;DHT22;2896;53.500;10.020;2024-02-04T20:38:35;7.40;99.90
5743;DHT22;2896;53.500;10.020;2024-02-04T20:41:03;7.40;99.90
5743;DHT22;2896;53.500;10.020;2024-02-04T20:45:57;7.40;99.90
5743;DHT22;2896;53.500;10.020;2024-02-04T20:48:24;7.30;99.90
5743;DHT22;2896;53.500;10.020;2024-02-04T20:50:50;7.30;99.90
5743;DHT22;2896;53.500;10.020;2024-02-04T20:55:44;7.40;99.90
5743;DHT22;2896;53.500;10.020;2024-02-04T20:58:12;7.40;99.90
5743;DHT22;2896;53.500;10.020;2024-02-04T21:03:08;7.40;99.90
5743;DHT22;2896;53.500;10.020;2024-02-04T21:08:05;7.60;99.90
5743;DHT22;2896;53.500;10.020;2024-02-04T21:10:33;7.60;99.90
5743;DHT22;2896;53.500;10.020;2024-02-04T21:13:01;7.50;99.90
5743;DHT22;2896;53.500;10.020;2024-02-04T21:15:29;7.50;99.90
5743;DHT22;2896;53.500;10.020;2024-02-04T21:17:57;7.60;99.90
5743;DHT22;2896;53.500;10.020;2024-02-04T21:20:24;7.60;99.90
5743;DHT22;2896;53.500;10.020;2024-02-04T21:22:50;7.60;99.90
5743;DHT22;2896;53.500;10.020;2024-02-04T21:25:18;7.70;99.90
5743;DHT22;2896;53.500;10.020;2024-02-04T21:27:44;7.60;99.90
5743;DHT22;2896;53.500;10.020;2024-02-04T21:30:11;7.80;99.90
5743;DHT22;2896;53.500;10.020;2024-02-04T21:32:39;7.70;99.90
5743;DHT22;2896;53.500;10.020;2024-02-04T21:35:06;7.70;99.90
5743;DHT22;2896;53.500;10.020;2024-02-04T21:37:33;7.80;99.90
5743;DHT22;2896;53.500;10.020;2024-02-04T21:40:00;7.80;99.90
5743;DHT22;2896;53.500;10.020;2024-02-04T21:42:26;7.90;99.90
5743;DHT22;2896;53.500;10.020;2024-02-04T21:44:53;8.10;99.90
5743;DHT22;2896;53.500;10.020;2024-02-04T21:47:21;8.10;99.90
5743;DHT22;2896;53.500;10.020;2024-02-04T21:49:49;8.20;99.90
5743;DHT22;2896;53.500;10.020;2024-02-04T21:54:43;8.20;99.90
5743;DHT22;2896;53.500;10.020;2024-02-04T21:57:10;8.20;99.90
5743;DHT22;2896;53.500;10.020;2024-02-04T21:59:37;8.30;99.90
5743;DHT22;2896;53.500;10.020;2024-02-04T22:02:04;8.30;99.90
5743;DHT22;2896;53.500;10.020;2024-02-04T22:04:31;9.30;99.90
5743;DHT22;2896;53.500;10.020;2024-02-04T22:06:59;8.30;99.90
5743;DHT22;2896;53.500;10.020;2024-02-04T22:09:26;8.40;99.90
5743;DHT22;2896;53.500;10.020;2024-02-04T22:11:53;8.50;99.90
5743;DHT22;2896;53.500;10.020;2024-02-04T22:14:20;8.50;99.90
5743;DHT22;2896;53.500;10.020;2024-02-04T22:16:46;8.50;99.90